createdAt,value
2022-12-31T00:01:22.981Z,67.19
2022-12-31T00:17:12.698Z,67.10
2022-12-31T00:20:15.393Z,67.22
2022-12-31T00:28:50.508Z,67.24
2022-12-31T00:31:53.083Z,67.50
2022-12-31T00:34:56.490Z,67.58
2022-12-31T00:37:58.857Z,67.50
2022-12-31T00:41:01.414Z,67.64
2022-12-31T00:44:06.915Z,67.88
2022-12-31T00:47:12.423Z,67.96
2022-12-31T00:50:15.213Z,67.79
2022-12-31T00:53:17.489Z,68.03
2022-12-31T00:56:26.376Z,67.89
2022-12-31T00:59:29.973Z,68.32
2022-12-31T01:02:32.563Z,68.10
2022-12-31T01:05:36.943Z,68.37
2022-12-31T01:08:39.366Z,67.98
2022-12-31T01:11:41.969Z,68.12
2022-12-31T01:14:48.308Z,68.16
2022-12-31T01:17:52.958Z,68.04
2022-12-31T01:25:06.276Z,68.23
2022-12-31T01:30:10.773Z,68.42
2022-12-31T01:46:16.922Z,68.21
2022-12-31T01:53:40.852Z,68.32
2022-12-31T02:01:37.924Z,68.40
2022-12-31T02:04:53.367Z,68.65
2022-12-31T02:08:13.591Z,68.62
2022-12-31T02:12:00.622Z,69.09
2022-12-31T02:15:15.123Z,68.94
2022-12-31T02:18:49.694Z,69.44
2022-12-31T02:22:28.007Z,69.32
2022-12-31T02:26:02.152Z,69.58
2022-12-31T02:30:06.658Z,69.62
2022-12-31T02:34:28.755Z,69.84
2022-12-31T02:38:49.378Z,69.91
2022-12-31T02:41:57.379Z,70.03
2022-12-31T02:44:59.590Z,70.09
2022-12-31T02:48:22.154Z,70.23
2022-12-31T02:51:33.546Z,70.07
2022-12-31T02:55:13.312Z,70.21
2022-12-31T02:58:22.244Z,70.25
2022-12-31T03:01:54.005Z,70.21
2022-12-31T03:05:19.537Z,70.50
2022-12-31T03:09:15.201Z,70.57
2022-12-31T03:24:28.807Z,70.62
2022-12-31T03:27:30.881Z,70.79
2022-12-31T03:30:33.934Z,70.77
2022-12-31T03:33:39.349Z,70.90
2022-12-31T03:36:41.407Z,71.09
2022-12-31T03:39:43.571Z,71.10
2022-12-31T03:42:46.054Z,71.19
2022-12-31T03:45:53.193Z,71.25
2022-12-31T03:48:56.568Z,71.28
2022-12-31T03:51:59.216Z,71.38
2022-12-31T03:55:05.324Z,71.54
2022-12-31T03:58:07.959Z,71.45
2022-12-31T04:01:10.434Z,71.43
2022-12-31T04:04:12.449Z,71.46
2022-12-31T04:07:14.565Z,71.45
2022-12-31T04:10:24.964Z,71.60
2022-12-31T04:13:58.787Z,71.49
2022-12-31T04:17:16.353Z,71.68
2022-12-31T04:20:21.045Z,71.62
2022-12-31T04:23:49.340Z,71.60
2022-12-31T04:29:32.728Z,71.56
2022-12-31T04:33:09.261Z,71.48
2022-12-31T04:56:44.296Z,71.63
2022-12-31T05:00:51.467Z,71.67
2022-12-31T05:09:57.650Z,71.81
2022-12-31T05:13:55.908Z,71.62
2022-12-31T05:17:11.337Z,71.74
2022-12-31T05:20:15.437Z,71.81
2022-12-31T05:23:19.092Z,71.87
2022-12-31T05:26:22.588Z,72.00
2022-12-31T05:29:25.971Z,72.12
2022-12-31T05:32:29.727Z,72.04
2022-12-31T05:35:33.328Z,72.24
2022-12-31T05:38:38.520Z,72.30
2022-12-31T05:41:42.009Z,72.28
2022-12-31T05:44:47.185Z,72.40
2022-12-31T05:47:50.596Z,72.52
2022-12-31T05:50:54.215Z,72.50
2022-12-31T05:53:57.907Z,72.50
2022-12-31T05:57:01.306Z,72.63
2022-12-31T06:00:07.014Z,72.61
2022-12-31T06:03:16.835Z,72.68
2022-12-31T06:06:20.165Z,72.62
2022-12-31T06:09:23.718Z,72.81
2022-12-31T06:12:27.056Z,72.83
2022-12-31T06:15:30.721Z,72.72
2022-12-31T06:18:34.368Z,72.99
2022-12-31T06:21:39.589Z,72.94
2022-12-31T06:24:44.010Z,73.03
2022-12-31T06:27:47.465Z,72.85
2022-12-31T06:30:50.850Z,72.94
2022-12-31T06:33:54.596Z,73.04
2022-12-31T06:36:59.370Z,73.07
2022-12-31T06:40:03.266Z,73.19
2022-12-31T06:43:06.649Z,73.15
2022-12-31T06:46:14.968Z,73.13
2022-12-31T06:49:18.394Z,73.24
2022-12-31T06:52:22.588Z,73.19
2022-12-31T06:55:29.758Z,73.17
2022-12-31T06:58:33.633Z,73.18
2022-12-31T07:01:44.447Z,73.42
2022-12-31T07:05:29.596Z,73.39
2022-12-31T07:08:57.518Z,73.47
2022-12-31T07:12:26.221Z,73.57
2022-12-31T07:16:08.397Z,73.53
2022-12-31T07:20:05.185Z,73.51
2022-12-31T07:23:24.399Z,73.54
2022-12-31T07:27:41.158Z,73.57
2022-12-31T07:31:06.545Z,73.67
2022-12-31T07:34:43.162Z,73.54
2022-12-31T07:38:08.805Z,73.64
2022-12-31T07:41:49.231Z,73.70
2022-12-31T07:45:14.621Z,73.64
2022-12-31T07:48:26.649Z,73.73
2022-12-31T07:51:30.235Z,73.74
2022-12-31T07:54:33.564Z,73.71
2022-12-31T07:57:55.700Z,73.69
2022-12-31T08:01:01.008Z,73.78
2022-12-31T08:04:04.412Z,73.73
2022-12-31T08:07:35.009Z,73.77
2022-12-31T08:11:02.098Z,73.83
2022-12-31T08:14:10.200Z,73.80
2022-12-31T08:17:15.608Z,73.84
2022-12-31T08:20:19.091Z,73.81
2022-12-31T08:23:28.587Z,73.87
2022-12-31T08:26:42.028Z,73.92
2022-12-31T08:30:07.400Z,73.88
2022-12-31T08:33:22.568Z,73.79
2022-12-31T08:36:37.557Z,73.73
2022-12-31T08:40:08.511Z,73.62
2022-12-31T08:43:21.033Z,73.56
2022-12-31T08:46:45.871Z,73.49
2022-12-31T08:49:49.714Z,73.45
2022-12-31T08:52:53.428Z,73.45
2022-12-31T08:56:08.054Z,73.55
2022-12-31T08:59:36.745Z,73.47
2022-12-31T09:03:03.466Z,73.47
2022-12-31T09:06:16.027Z,73.40
2022-12-31T09:09:25.044Z,73.33
2022-12-31T09:12:49.319Z,73.40
2022-12-31T09:16:17.506Z,73.40
2022-12-31T09:19:20.919Z,73.40
2022-12-31T09:22:24.471Z,73.43
2022-12-31T09:25:29.093Z,73.48
2022-12-31T09:29:24.830Z,73.69
2022-12-31T09:32:46.473Z,73.60
2022-12-31T09:36:01.341Z,73.50
2022-12-31T09:39:16.857Z,73.48
2022-12-31T09:43:03.329Z,73.45
2022-12-31T09:46:21.352Z,73.37
2022-12-31T09:49:47.657Z,73.47
2022-12-31T09:53:10.173Z,73.40
2022-12-31T09:56:25.516Z,73.42
2022-12-31T09:59:45.755Z,73.47
2022-12-31T10:03:17.154Z,73.45
2022-12-31T10:06:26.155Z,73.46
2022-12-31T10:09:38.317Z,73.52
2022-12-31T10:13:03.683Z,73.58
2022-12-31T10:16:28.821Z,73.54
2022-12-31T10:20:10.606Z,73.58
2022-12-31T10:23:32.103Z,73.56
2022-12-31T10:27:09.375Z,73.81
2022-12-31T10:30:20.421Z,73.77
2022-12-31T10:34:23.074Z,73.83
2022-12-31T10:37:33.199Z,73.89
2022-12-31T10:40:42.603Z,73.87
2022-12-31T10:44:15.067Z,73.83
2022-12-31T10:47:41.247Z,73.92
2022-12-31T10:50:55.018Z,74.14
2022-12-31T10:54:04.102Z,74.12
2022-12-31T10:57:36.165Z,74.16
2022-12-31T11:01:06.210Z,74.23
2022-12-31T11:04:27.929Z,74.24
2022-12-31T11:08:02.069Z,74.26
2022-12-31T11:11:14.000Z,74.31
2022-12-31T11:14:42.825Z,74.37
2022-12-31T11:17:48.563Z,74.28
2022-12-31T11:21:17.210Z,74.14
2022-12-31T11:24:47.221Z,73.94
2022-12-31T11:27:56.415Z,73.93
2022-12-31T11:31:02.658Z,73.82
2022-12-31T11:34:38.001Z,73.84
2022-12-31T11:37:54.631Z,73.76
2022-12-31T11:41:08.249Z,73.85
2022-12-31T11:44:35.583Z,73.78
2022-12-31T11:48:28.706Z,73.85
2022-12-31T11:51:25.708Z,73.73
2022-12-31T11:54:43.032Z,73.85
2022-12-31T11:57:51.310Z,73.78
2022-12-31T12:01:33.738Z,73.54
2022-12-31T12:04:37.032Z,73.42
2022-12-31T12:07:40.251Z,73.39
2022-12-31T12:10:51.033Z,73.32
2022-12-31T12:13:54.425Z,73.40
2022-12-31T12:17:04.318Z,73.24
2022-12-31T12:20:24.708Z,73.33
2022-12-31T12:23:28.060Z,73.30
2022-12-31T12:26:41.671Z,73.25
2022-12-31T12:29:47.491Z,73.27
2022-12-31T12:33:02.279Z,73.23
2022-12-31T12:36:11.497Z,73.27
2022-12-31T12:39:32.585Z,73.22
2022-12-31T12:42:36.182Z,73.29
2022-12-31T12:45:51.357Z,73.16
2022-12-31T12:48:57.513Z,73.37
2022-12-31T12:52:27.585Z,73.24
2022-12-31T12:55:43.233Z,73.16
2022-12-31T12:58:58.471Z,73.24
2022-12-31T13:02:39.471Z,73.29
2022-12-31T13:05:52.494Z,73.39
2022-12-31T13:09:01.599Z,73.37
2022-12-31T13:12:08.065Z,73.17
2022-12-31T13:15:34.162Z,73.36
2022-12-31T13:18:49.259Z,73.11
2022-12-31T13:22:04.236Z,73.15
2022-12-31T13:25:28.852Z,73.25
2022-12-31T13:28:34.330Z,73.14
2022-12-31T13:31:39.627Z,73.15
2022-12-31T13:34:46.492Z,73.10
2022-12-31T13:37:53.118Z,73.31
2022-12-31T13:41:18.397Z,73.25
2022-12-31T13:44:30.957Z,73.26
2022-12-31T13:47:40.862Z,73.35
2022-12-31T13:51:01.848Z,73.36
2022-12-31T13:54:24.644Z,73.29
2022-12-31T13:57:37.470Z,73.32
2022-12-31T14:01:01.907Z,73.36
2022-12-31T14:04:19.955Z,73.54
2022-12-31T14:07:45.395Z,73.56
2022-12-31T14:10:58.199Z,73.40
2022-12-31T14:14:01.462Z,73.33
2022-12-31T14:17:11.299Z,73.47
2022-12-31T14:20:29.011Z,73.36
2022-12-31T14:23:59.543Z,73.37
2022-12-31T14:27:09.243Z,73.41
2022-12-31T14:30:22.072Z,73.56
2022-12-31T14:33:41.748Z,73.60
2022-12-31T14:37:00.265Z,73.52
2022-12-31T14:40:37.191Z,73.52
2022-12-31T14:43:48.474Z,73.62
2022-12-31T14:47:08.552Z,73.51
2022-12-31T14:50:15.441Z,73.56
2022-12-31T14:53:25.013Z,73.60
2022-12-31T14:56:33.372Z,73.59
2022-12-31T14:59:40.387Z,73.49
2022-12-31T15:02:51.120Z,73.65
2022-12-31T15:06:03.739Z,73.57
2022-12-31T15:09:15.608Z,73.70
2022-12-31T15:12:24.417Z,73.68
2022-12-31T15:15:33.505Z,73.79
2022-12-31T15:18:55.471Z,73.64
2022-12-31T15:22:14.290Z,73.65
2022-12-31T15:25:33.863Z,73.75
2022-12-31T15:28:41.030Z,73.62
2022-12-31T15:31:49.944Z,73.64
2022-12-31T15:35:24.161Z,73.69
2022-12-31T15:38:35.065Z,73.65
2022-12-31T15:41:46.147Z,73.73
2022-12-31T15:45:06.407Z,73.82
2022-12-31T15:48:23.898Z,73.77
2022-12-31T15:51:34.599Z,73.90
2022-12-31T15:54:42.546Z,73.69
2022-12-31T15:57:46.562Z,73.76
2022-12-31T16:01:05.005Z,73.63
2022-12-31T16:04:16.637Z,73.58
2022-12-31T16:07:20.682Z,73.71
2022-12-31T16:10:28.207Z,73.73
2022-12-31T16:13:35.028Z,73.67
2022-12-31T16:16:38.593Z,73.57
2022-12-31T16:19:49.083Z,73.56
2022-12-31T16:22:56.251Z,73.56
2022-12-31T16:26:02.547Z,73.58
2022-12-31T16:29:05.981Z,73.69
2022-12-31T16:32:15.855Z,73.67
2022-12-31T16:35:28.676Z,73.59
2022-12-31T16:38:37.039Z,73.51
2022-12-31T16:41:44.166Z,73.76
2022-12-31T16:44:48.573Z,73.57
2022-12-31T16:47:52.095Z,73.70
2022-12-31T16:50:56.984Z,73.55
2022-12-31T16:54:02.140Z,73.51
2022-12-31T16:57:19.262Z,73.56
2022-12-31T17:00:25.318Z,73.67
2022-12-31T17:03:29.729Z,73.67
2022-12-31T17:06:33.793Z,73.60
2022-12-31T17:09:38.011Z,73.46
2022-12-31T17:16:20.436Z,73.55
2022-12-31T17:19:38.894Z,73.55
2022-12-31T17:22:44.357Z,73.60
2022-12-31T17:25:47.722Z,73.34
2022-12-31T17:28:53.273Z,73.59
2022-12-31T17:32:23.795Z,73.50
2022-12-31T17:35:30.944Z,73.46
2022-12-31T17:38:36.286Z,73.53
2022-12-31T17:41:39.523Z,73.43
2022-12-31T17:44:44.730Z,73.42
2022-12-31T17:47:51.190Z,73.42
2022-12-31T17:51:01.597Z,73.12
2022-12-31T17:54:17.941Z,73.36
2022-12-31T17:57:25.856Z,73.19
2022-12-31T18:00:29.368Z,73.08
2022-12-31T18:03:32.767Z,73.09
2022-12-31T18:06:36.000Z,72.86
2022-12-31T18:09:39.227Z,72.95
2022-12-31T18:12:44.610Z,72.89
2022-12-31T18:15:48.783Z,72.96
2022-12-31T18:18:52.122Z,72.87
2022-12-31T18:21:57.709Z,72.84
2022-12-31T18:25:01.158Z,72.69
2022-12-31T18:28:09.548Z,72.73
2022-12-31T18:31:39.502Z,72.63
2022-12-31T18:34:42.710Z,72.57
2022-12-31T18:37:46.440Z,72.61
2022-12-31T18:40:59.121Z,72.54
2022-12-31T18:44:02.404Z,72.59
2022-12-31T18:47:15.095Z,72.46
2022-12-31T18:53:40.783Z,72.25
2022-12-31T18:56:48.313Z,72.32
2022-12-31T18:59:55.102Z,72.28
2022-12-31T19:02:58.642Z,72.34
2022-12-31T19:06:02.138Z,72.14
2022-12-31T19:09:13.258Z,72.32
2022-12-31T19:12:29.786Z,72.26
2022-12-31T19:15:39.059Z,72.18
2022-12-31T19:18:42.731Z,72.21
2022-12-31T19:21:46.266Z,72.20
2022-12-31T19:24:49.636Z,72.18
2022-12-31T19:27:53.434Z,72.11
2022-12-31T19:30:56.719Z,72.00
2022-12-31T19:34:00.004Z,71.96
2022-12-31T19:37:03.455Z,72.10
2022-12-31T19:40:07.900Z,71.97
2022-12-31T19:43:14.597Z,71.85
2022-12-31T19:46:18.821Z,72.01
2022-12-31T19:49:22.144Z,71.84
2022-12-31T19:52:25.605Z,71.91
2022-12-31T19:55:28.880Z,71.77
2022-12-31T19:58:32.117Z,71.70
2022-12-31T20:01:35.547Z,71.75
2022-12-31T20:04:38.797Z,71.66
2022-12-31T20:07:42.182Z,71.76
2022-12-31T20:10:46.067Z,71.66
2022-12-31T20:13:52.225Z,71.56
2022-12-31T20:16:56.226Z,71.47
2022-12-31T20:19:59.681Z,71.69
2022-12-31T20:23:02.942Z,71.59
2022-12-31T20:26:06.223Z,71.51
2022-12-31T20:29:09.471Z,71.38
2022-12-31T20:32:12.753Z,71.57
2022-12-31T20:35:16.343Z,71.28
2022-12-31T20:38:19.640Z,71.27
2022-12-31T20:41:23.644Z,71.28
2022-12-31T20:44:26.936Z,71.27
2022-12-31T20:47:30.088Z,71.33
2022-12-31T20:50:33.288Z,71.28
2022-12-31T20:53:36.715Z,71.20
2022-12-31T20:56:41.572Z,70.99
2022-12-31T20:59:44.793Z,70.97
2022-12-31T21:02:56.361Z,70.98
2022-12-31T21:06:01.219Z,70.79
2022-12-31T21:09:07.603Z,70.75
2022-12-31T21:12:32.518Z,70.85
2022-12-31T21:15:35.898Z,70.74
2022-12-31T21:18:39.213Z,70.77
2022-12-31T21:21:42.558Z,70.45
2022-12-31T21:24:48.233Z,70.74
2022-12-31T21:27:51.500Z,70.39
2022-12-31T21:31:03.731Z,70.61
2022-12-31T21:34:08.686Z,70.45
2022-12-31T21:37:11.977Z,70.30
2022-12-31T21:40:15.299Z,70.14
2022-12-31T21:43:18.565Z,70.24
2022-12-31T21:46:21.795Z,70.17
2022-12-31T21:49:25.479Z,70.13
2022-12-31T21:52:31.695Z,70.22
2022-12-31T21:55:56.917Z,70.00
2022-12-31T21:59:18.696Z,70.02
2022-12-31T22:02:41.170Z,69.83
2022-12-31T22:06:16.195Z,69.78
2022-12-31T22:09:19.490Z,69.69
2022-12-31T22:12:22.745Z,69.77
2022-12-31T22:15:26.004Z,69.51
2022-12-31T22:18:29.639Z,69.49
2022-12-31T22:21:32.973Z,69.47
2022-12-31T22:24:36.153Z,69.46
2022-12-31T22:27:39.614Z,69.41
2022-12-31T22:30:42.773Z,69.37
2022-12-31T22:33:46.458Z,69.13
2022-12-31T22:36:49.716Z,69.28
2022-12-31T22:39:52.941Z,69.08
2022-12-31T22:42:56.163Z,69.03
2022-12-31T22:45:59.396Z,68.97
2022-12-31T22:49:04.436Z,68.96
2022-12-31T22:52:08.992Z,68.81
2022-12-31T22:55:12.267Z,68.80
2022-12-31T22:58:15.508Z,68.67
2022-12-31T23:01:22.626Z,68.56
2022-12-31T23:04:25.993Z,68.60
2022-12-31T23:07:29.223Z,68.56
2022-12-31T23:10:50.870Z,68.49
2022-12-31T23:14:12.688Z,68.34
2022-12-31T23:17:43.560Z,68.41
2022-12-31T23:21:05.308Z,68.41
2022-12-31T23:24:15.699Z,68.23
2022-12-31T23:27:22.651Z,68.20
2022-12-31T23:30:25.964Z,68.10
2022-12-31T23:33:29.135Z,68.13
2022-12-31T23:36:32.641Z,67.94
2022-12-31T23:39:35.897Z,67.99
2022-12-31T23:42:39.370Z,68.10
2022-12-31T23:45:42.550Z,67.84
2022-12-31T23:48:45.754Z,67.82
2022-12-31T23:51:49.065Z,67.94
2022-12-31T23:54:52.348Z,67.88
2022-12-31T23:57:55.531Z,67.82
